Time;durP1;ratioP1;P1;durP2;ratioP2;P2;SDS_P1;SDS_P2;PMS_P1;PMS_P2;Temp;Humidity;BMP_temperature;BMP_pressure;BME280_temperature;BME280_humidity;BME280_pressure;Samples;Min_cycle;Max_cycle;Signal;HPM_P1;HPM_P2
2021/05/12 00:00:24;;;;;;;;;;;;;;;20.97;39.10;100606.66;2215023;39;115311;-52
2021/05/12 00:01:56;;;;;;;;;;;;;;;20.97;39.26;100601.03;2216765;39;114825;-53
2021/05/12 00:03:27;;;;;;;;;;;;;;;20.98;39.49;100610.28;2214582;39;114992;-53
2021/05/12 00:04:59;;;;;;;;;;;;;;;20.97;39.51;100603.00;2216965;39;114746;-54
2021/05/12 00:06:31;;;;;;;;;;;;;;;20.98;39.60;100601.88;2215641;39;115093;-52
2021/05/12 00:08:03;;;;;;;;;;;;;;;20.96;39.46;100607.81;2216613;39;114208;-53
2021/05/12 00:09:35;;;;;;;;;;;;;;;20.97;39.31;100608.63;2207786;39;114811;-53
2021/05/12 00:11:06;;;;;;;;;;;;;;;20.97;39.52;100617.91;2213679;39;113760;-52
2021/05/12 00:12:40;;;;;;;;;;;;;;;20.98;39.40;100611.13;2209593;39;115620;-53
2021/05/12 00:14:12;;;;;;;;;;;;;;;21.00;39.74;100610.78;2206881;39;115499;-53
2021/05/12 00:15:43;;;;;;;;;;;;;;;20.96;39.58;100610.59;2196974;39;115845;-53
2021/05/12 00:17:19;;;;;;;;;;;;;;;20.94;39.88;100610.09;2195556;39;115279;-52
2021/05/12 00:18:50;;;;;;;;;;;;;;;20.97;39.72;100615.09;2203467;39;115466;-54
2021/05/12 00:20:28;;;;;;;;;;;;;;;20.93;39.67;100619.69;2210510;39;116074;-53
2021/05/12 00:25:16;;;;;;;;;;;;;;;20.92;39.99;100614.38;2201958;39;115922;-53
2021/05/12 00:26:48;;;;;;;;;;;;;;;20.90;39.82;100606.25;2205665;39;115790;-53
2021/05/12 00:28:20;;;;;;;;;;;;;;;20.91;40.16;100612.72;2202989;39;115470;-54
2021/05/12 00:29:52;;;;;;;;;;;;;;;20.94;40.19;100618.50;2204656;39;115470;-55
2021/05/12 00:31:24;;;;;;;;;;;;;;;20.95;39.83;100611.75;2207161;39;115606;-55
2021/05/12 00:32:56;;;;;;;;;;;;;;;20.94;40.15;100614.91;2206729;39;115452;-53
2021/05/12 00:34:27;;;;;;;;;;;;;;;20.94;40.29;100615.69;2207151;39;115533;-53
2021/05/12 00:35:59;;;;;;;;;;;;;;;20.93;40.09;100616.88;2202542;39;114024;-53
2021/05/12 00:37:31;;;;;;;;;;;;;;;20.92;40.52;100622.81;2205233;39;114155;-54
2021/05/12 00:39:04;;;;;;;;;;;;;;;20.92;40.87;100614.38;2207474;39;113919;-53
2021/05/12 00:40:36;;;;;;;;;;;;;;;20.91;40.70;100609.91;2204532;39;113983;-54
2021/05/12 00:42:08;;;;;;;;;;;;;;;20.90;40.68;100616.66;2203416;39;113931;-53
2021/05/12 00:43:39;;;;;;;;;;;;;;;20.90;40.62;100613.84;2205772;39;114753;-53
2021/05/12 00:45:13;;;;;;;;;;;;;;;20.90;40.86;100613.84;2208461;39;114132;-53
2021/05/12 00:46:46;;;;;;;;;;;;;;;20.89;41.12;100612.22;2206472;39;113952;-53
2021/05/12 00:48:19;;;;;;;;;;;;;;;20.89;40.64;100623.44;2203062;39;113795;-53
2021/05/12 00:49:50;;;;;;;;;;;;;;;20.88;40.67;100617.00;2204288;39;113747;-53
2021/05/12 00:51:22;;;;;;;;;;;;;;;20.88;40.82;100616.16;2205100;39;113744;-53
2021/05/12 00:52:54;;;;;;;;;;;;;;;20.86;41.06;100613.66;2203918;39;113818;-52
2021/05/12 00:54:26;;;;;;;;;;;;;;;20.86;40.88;100608.06;2206783;39;114051;-53
2021/05/12 00:55:57;;;;;;;;;;;;;;;20.90;41.03;100606.25;2211682;39;113962;-53
2021/05/12 00:57:29;;;;;;;;;;;;;;;20.91;40.62;100605.13;2204560;39;114752;-53
2021/05/12 00:59:01;;;;;;;;;;;;;;;20.89;41.12;100604.63;2208345;39;114855;-53
2021/05/12 01:00:33;;;;;;;;;;;;;;;20.88;41.05;100608.56;2210289;39;114568;-53
2021/05/12 01:02:06;;;;;;;;;;;;;;;20.88;41.35;100604.94;2209842;39;115020;-53
2021/05/12 01:03:38;;;;;;;;;;;;;;;20.88;41.10;100613.34;2206050;39;114269;-53
2021/05/12 01:05:14;;;;;;;;;;;;;;;20.86;41.24;100613.66;2203945;39;113815;-53
2021/05/12 01:06:45;;;;;;;;;;;;;;;20.84;41.17;100608.38;2205928;39;114840;-53
2021/05/12 01:08:18;;;;;;;;;;;;;;;20.85;41.26;100610.03;2209861;39;114757;-54
2021/05/12 01:09:50;;;;;;;;;;;;;;;20.85;41.29;100609.19;2209921;39;115306;-53
2021/05/12 01:11:22;;;;;;;;;;;;;;;20.84;41.22;100613.16;2210029;39;114853;-53
2021/05/12 01:12:54;;;;;;;;;;;;;;;20.83;41.61;100611.50;2206675;39;114378;-53
2021/05/12 01:14:30;;;;;;;;;;;;;;;20.81;41.83;100606.19;2205927;39;115055;-53
2021/05/12 01:16:01;;;;;;;;;;;;;;;20.82;41.62;100602.25;2209462;39;114795;-53
2021/05/12 01:17:33;;;;;;;;;;;;;;;20.81;41.28;100605.38;2207032;39;114557;-52
2021/05/12 01:19:05;;;;;;;;;;;;;;;20.82;41.58;100607.03;2209340;39;115678;-53
2021/05/12 01:20:46;;;;;;;;;;;;;;;20.80;41.65;100607.34;2207694;39;115568;-53
2021/05/12 01:22:18;;;;;;;;;;;;;;;20.79;41.77;100607.69;2211558;39;115567;-53
2021/05/12 01:23:50;;;;;;;;;;;;;;;20.79;41.97;100610.50;2208846;39;116326;-53
2021/05/12 01:25:21;;;;;;;;;;;;;;;20.78;41.74;100606.00;2205932;39;114510;-53
2021/05/12 01:26:53;;;;;;;;;;;;;;;20.80;42.03;100604.53;2207492;39;115851;-53
2021/05/12 01:28:28;;;;;;;;;;;;;;;20.77;42.16;100596.75;2203582;39;115559;-53
2021/05/12 01:30:00;;;;;;;;;;;;;;;20.77;41.98;100598.72;2211146;39;115745;-53
2021/05/12 01:31:34;;;;;;;;;;;;;;;20.75;41.97;100604.69;2214827;39;116017;-53
2021/05/12 01:33:06;;;;;;;;;;;;;;;20.73;42.40;100595.75;2209467;39;114855;-52
2021/05/12 01:34:38;;;;;;;;;;;;;;;20.76;42.09;100603.50;2214901;39;116350;-53
2021/05/12 01:36:10;;;;;;;;;;;;;;;20.75;42.27;100607.50;2216813;39;115292;-54
2021/05/12 01:37:42;;;;;;;;;;;;;;;20.75;42.08;100607.50;2209555;39;116013;-53
2021/05/12 01:39:13;;;;;;;;;;;;;;;20.74;42.57;100610.59;2216463;39;115663;-53
2021/05/12 01:40:45;;;;;;;;;;;;;;;20.73;42.11;100606.97;2216734;39;114101;-52
2021/05/12 01:42:17;;;;;;;;;;;;;;;20.74;42.24;100608.63;2207499;39;113852;-53
2021/05/12 01:43:50;;;;;;;;;;;;;;;20.72;42.29;100599.69;2212887;39;113782;-53
2021/05/12 01:45:21;;;;;;;;;;;;;;;20.73;42.68;100603.31;2204261;39;113752;-53
2021/05/12 01:46:53;;;;;;;;;;;;;;;20.74;42.75;100599.38;2201671;39;113908;-53
2021/05/12 01:48:26;;;;;;;;;;;;;;;20.73;42.62;100606.13;2208502;39;113883;-53
2021/05/12 01:50:00;;;;;;;;;;;;;;;20.74;42.71;100605.00;2206482;39;114174;-53
2021/05/12 01:51:33;;;;;;;;;;;;;;;20.72;42.65;100608.09;2203701;39;114127;-53
2021/05/12 01:53:05;;;;;;;;;;;;;;;20.71;42.35;100606.47;2207430;39;113751;-53
2021/05/12 01:54:36;;;;;;;;;;;;;;;20.72;42.76;100605.31;2207557;39;113762;-53
2021/05/12 01:56:09;;;;;;;;;;;;;;;20.70;42.95;100612.41;2214437;39;113671;-52
2021/05/12 01:57:41;;;;;;;;;;;;;;;20.69;42.72;100607.91;2203465;39;113997;-53
2021/05/12 01:59:13;;;;;;;;;;;;;;;20.69;42.61;100599.50;2205613;39;113745;-53
2021/05/12 02:00:46;;;;;;;;;;;;;;;20.68;43.03;100598.66;2214211;39;113968;-53
2021/05/12 02:02:18;;;;;;;;;;;;;;;20.70;42.61;100604.81;2210832;39;114357;-53
2021/05/12 02:03:49;;;;;;;;;;;;;;;20.68;42.59;100598.66;2213358;39;115285;-53
2021/05/12 02:05:22;;;;;;;;;;;;;;;20.68;42.88;100595.84;2213252;39;114895;-53
2021/05/12 02:06:54;;;;;;;;;;;;;;;20.66;42.86;100595.38;2207182;39;113855;-53
2021/05/12 02:08:27;;;;;;;;;;;;;;;20.69;42.83;100607.91;2207576;39;114140;-53
2021/05/12 02:09:59;;;;;;;;;;;;;;;20.67;42.82;100607.44;2206325;39;114739;-53
2021/05/12 02:11:30;;;;;;;;;;;;;;;20.69;42.90;100614.38;2209721;39;114986;-53
2021/05/12 02:13:02;;;;;;;;;;;;;;;20.67;42.48;100607.44;2204106;39;114387;-53
2021/05/12 02:14:34;;;;;;;;;;;;;;;20.69;42.67;100614.38;2210510;39;115121;-53
2021/05/12 02:16:06;;;;;;;;;;;;;;;20.68;42.86;100611.88;2216307;39;114213;-53
2021/05/12 02:17:39;;;;;;;;;;;;;;;20.68;42.86;100606.25;2204977;39;114001;-53
2021/05/12 02:19:10;;;;;;;;;;;;;;;20.65;42.91;100602.13;2210084;39;115191;-53
2021/05/12 02:20:42;;;;;;;;;;;;;;;20.66;42.62;100615.00;2214180;39;115047;-53
2021/05/12 02:22:14;;;;;;;;;;;;;;;20.68;42.83;100623.09;2206575;39;114830;-54
2021/05/12 02:23:45;;;;;;;;;;;;;;;20.67;42.63;100622.25;2207941;39;115014;-53
2021/05/12 02:25:17;;;;;;;;;;;;;;;20.64;42.88;100622.91;2212946;39;115710;-52
2021/05/12 02:26:49;;;;;;;;;;;;;;;20.63;43.03;100617.59;2208411;39;116254;-53
2021/05/12 02:28:22;;;;;;;;;;;;;;;20.64;42.92;100614.50;2213956;39;115978;-53
2021/05/12 02:29:56;;;;;;;;;;;;;;;20.64;43.33;100625.72;2204801;39;115635;-52
2021/05/12 02:31:27;;;;;;;;;;;;;;;20.64;43.30;100625.72;2209418;39;115347;-53
2021/05/12 02:32:59;;;;;;;;;;;;;;;20.64;43.03;100616.47;2212657;39;115490;-54
2021/05/12 02:34:31;;;;;;;;;;;;;;;20.62;42.96;100615.97;2206596;39;116446;-53
2021/05/12 02:36:03;;;;;;;;;;;;;;;20.62;42.99;100616.81;2208651;39;115497;-52
2021/05/12 02:37:35;;;;;;;;;;;;;;;20.62;43.37;100613.16;2203142;39;115937;-54
2021/05/12 02:39:08;;;;;;;;;;;;;;;20.62;42.99;100621.56;2204455;39;114923;-54
2021/05/12 02:40:40;;;;;;;;;;;;;;;20.63;43.03;100620.41;2207418;39;115689;-53
2021/05/12 02:42:12;;;;;;;;;;;;;;;20.63;43.38;100621.25;2210013;39;114602;-53
2021/05/12 02:43:44;;;;;;;;;;;;;;;20.63;43.51;100615.63;2207722;39;116232;-53
2021/05/12 02:45:17;;;;;;;;;;;;;;;20.63;43.56;100621.25;2201217;39;115562;-53
2021/05/12 02:46:52;;;;;;;;;;;;;;;20.62;43.62;100616.81;2212919;39;113847;-53
2021/05/12 02:48:24;;;;;;;;;;;;;;;20.63;43.00;100612.00;2217228;39;113792;-54
2021/05/12 02:49:56;;;;;;;;;;;;;;;20.64;43.42;100622.91;2213054;39;114048;-53
2021/05/12 02:51:28;;;;;;;;;;;;;;;20.61;43.16;100620.75;2217294;39;114333;-53
2021/05/12 02:53:00;;;;;;;;;;;;;;;20.62;43.47;100624.38;2210286;39;114106;-53
2021/05/12 02:54:33;;;;;;;;;;;;;;;20.64;43.38;100619.28;2208269;39;113923;-53
2021/05/12 02:56:05;;;;;;;;;;;;;;;20.60;43.37;100619.06;2207256;39;113822;-53
2021/05/12 02:57:36;;;;;;;;;;;;;;;20.59;43.32;100617.41;2207809;39;113761;-53
2021/05/12 02:59:08;;;;;;;;;;;;;;;20.59;43.35;100609.00;2207543;39;113825;-53
2021/05/12 03:00:42;;;;;;;;;;;;;;;20.58;43.70;100618.56;2213515;39;113688;-53
2021/05/12 03:02:13;;;;;;;;;;;;;;;20.60;43.24;100615.44;2213746;39;113956;-54
2021/05/12 03:03:45;;;;;;;;;;;;;;;20.58;43.28;100624.16;2209938;39;113936;-52
2021/05/12 03:05:17;;;;;;;;;;;;;;;20.57;43.70;100618.88;2208567;39;114065;-53
2021/05/12 03:06:52;;;;;;;;;;;;;;;20.58;43.73;100621.34;2211073;39;114178;-52
2021/05/12 03:08:24;;;;;;;;;;;;;;;20.58;43.26;100631.78;2215064;39;114888;-52
2021/05/12 03:09:55;;;;;;;;;;;;;;;20.57;43.23;100614.09;2214266;39;113849;-54
2021/05/12 03:11:27;;;;;;;;;;;;;;;20.57;43.52;100627.31;2213764;39;114758;-52
2021/05/12 03:12:59;;;;;;;;;;;;;;;20.56;43.50;100626.47;2210354;39;114135;-52
2021/05/12 03:14:31;;;;;;;;;;;;;;;20.56;43.45;100628.44;2217136;39;114494;-53
2021/05/12 03:16:03;;;;;;;;;;;;;;;20.55;43.56;100629.59;2216694;39;115480;-53
2021/05/12 03:17:35;;;;;;;;;;;;;;;20.55;43.37;100632.41;2209071;39;114001;-53
2021/05/12 03:19:06;;;;;;;;;;;;;;;20.56;43.45;100632.09;2214623;39;114114;-53
2021/05/12 03:20:38;;;;;;;;;;;;;;;20.55;43.75;100632.41;2216611;39;113840;-52
2021/05/12 03:22:10;;;;;;;;;;;;;;;20.55;43.44;100627.63;2214162;39;113868;-53
2021/05/12 03:23:42;;;;;;;;;;;;;;;20.53;43.77;100621.50;2210175;39;114745;-53
2021/05/12 03:25:15;;;;;;;;;;;;;;;20.54;43.81;100630.72;2214805;39;115157;-53
2021/05/12 03:26:46;;;;;;;;;;;;;;;20.53;43.70;100635.53;2216566;39;114012;-53
2021/05/12 03:28:19;;;;;;;;;;;;;;;20.50;43.41;100624.09;2212897;39;115282;-53
2021/05/12 03:29:51;;;;;;;;;;;;;;;20.52;43.81;100625.44;2208720;39;115558;-53
2021/05/12 03:31:22;;;;;;;;;;;;;;;20.51;44.19;100628.56;2212184;39;115754;-53
2021/05/12 03:32:56;;;;;;;;;;;;;;;20.51;43.92;100625.75;2214439;39;115583;-53
2021/05/12 03:34:28;;;;;;;;;;;;;;;20.52;43.85;100624.63;2216807;39;115488;-53
2021/05/12 03:36:00;;;;;;;;;;;;;;;20.47;44.03;100631.19;2208664;39;115434;-52
2021/05/12 03:37:32;;;;;;;;;;;;;;;20.47;44.15;100627.53;2214582;39;115830;-53
2021/05/12 03:39:04;;;;;;;;;;;;;;;20.46;44.01;100631.47;2214264;39;115434;-55
2021/05/12 03:40:37;;;;;;;;;;;;;;;20.46;43.86;100615.47;2217095;39;114889;-53
2021/05/12 03:42:12;;;;;;;;;;;;;;;20.47;43.95;100628.38;2215097;39;115080;-53
2021/05/12 03:43:44;;;;;;;;;;;;;;;20.47;43.92;100624.72;2216089;39;115552;-53
2021/05/12 03:45:15;;;;;;;;;;;;;;;20.46;43.67;100625.88;2214264;39;115791;-53
2021/05/12 03:46:51;;;;;;;;;;;;;;;20.47;43.99;100631.19;2203802;39;116323;-53
2021/05/12 03:48:26;;;;;;;;;;;;;;;20.46;43.84;100626.72;2205558;39;115537;-53
2021/05/12 03:49:58;;;;;;;;;;;;;;;20.48;43.86;100634.81;2214960;39;115680;-53
2021/05/12 03:51:30;;;;;;;;;;;;;;;20.46;43.99;100631.47;2208654;39;115383;-53
2021/05/12 03:53:02;;;;;;;;;;;;;;;20.46;43.75;100634.28;2206794;39;114083;-53
2021/05/12 03:54:33;;;;;;;;;;;;;;;20.48;43.94;100634.81;2208081;39;113860;-53
2021/05/12 03:56:05;;;;;;;;;;;;;;;20.45;43.95;100647.50;2214639;39;113861;-52
2021/05/12 03:57:37;;;;;;;;;;;;;;;20.42;44.08;100632.13;2217457;39;114123;-52
2021/05/12 03:59:08;;;;;;;;;;;;;;;20.42;44.15;100639.72;2217190;39;113643;-53
2021/05/12 04:00:40;;;;;;;;;;;;;;;20.43;43.79;100638.56;2210433;39;114129;-52
2021/05/12 04:02:12;;;;;;;;;;;;;;;20.41;43.99;100636.06;2214788;39;113745;-53
2021/05/12 04:03:44;;;;;;;;;;;;;;;20.42;43.85;100631.28;2210271;39;113946;-54
2021/05/12 04:05:16;;;;;;;;;;;;;;;20.39;44.19;100641.19;2214604;39;113934;-52
2021/05/12 04:06:51;;;;;;;;;;;;;;;20.42;44.10;100642.53;2205198;39;113922;-53
2021/05/12 04:08:25;;;;;;;;;;;;;;;20.42;43.98;100640.53;2210592;39;113749;-53
2021/05/12 04:09:56;;;;;;;;;;;;;;;20.43;43.88;100638.56;2206801;39;113875;-54
2021/05/12 04:11:28;;;;;;;;;;;;;;;20.40;43.98;100645.63;2215070;39;113869;-52
2021/05/12 04:13:00;;;;;;;;;;;;;;;20.40;44.13;100639.19;2212173;39;114245;-53
2021/05/12 04:14:32;;;;;;;;;;;;;;;20.39;44.00;100635.56;2209741;39;114792;-54
2021/05/12 04:16:04;;;;;;;;;;;;;;;20.38;44.06;100647.94;2215382;39;114018;-52
2021/05/12 04:17:36;;;;;;;;;;;;;;;20.39;44.36;100631.94;2217601;39;116870;-54
2021/05/12 04:19:08;;;;;;;;;;;;;;;20.40;44.27;100633.56;2204492;39;114248;-54
2021/05/12 04:20:40;;;;;;;;;;;;;;;20.37;44.69;100646.28;2206746;39;114024;-53
2021/05/12 04:22:11;;;;;;;;;;;;;;;20.38;44.72;100645.13;2206641;39;115065;-53
2021/05/12 04:23:43;;;;;;;;;;;;;;;20.40;44.37;100639.19;2211902;39;114814;-53
2021/05/12 04:25:17;;;;;;;;;;;;;;;20.37;44.52;100635.03;2217885;39;116082;-53
2021/05/12 04:26:49;;;;;;;;;;;;;;;20.38;44.60;100635.88;2215884;39;115620;-53
2021/05/12 04:28:21;;;;;;;;;;;;;;;20.35;44.63;100640.13;2217294;39;115397;-53
2021/05/12 04:29:53;;;;;;;;;;;;;;;20.38;44.65;100645.13;2216037;39;115183;-53
2021/05/12 04:31:25;;;;;;;;;;;;;;;20.37;44.17;100639.81;2213802;39;114916;-54
2021/05/12 04:32:59;;;;;;;;;;;;;;;20.36;44.33;100641.78;2215285;39;115954;-53
2021/05/12 04:34:30;;;;;;;;;;;;;;;20.37;44.66;100645.44;2218363;39;114904;-52
2021/05/12 04:36:03;;;;;;;;;;;;;;;20.36;44.51;100643.78;2217217;39;115578;-53
2021/05/12 04:37:34;;;;;;;;;;;;;;;20.34;44.70;100640.47;2214342;39;115551;-53
2021/05/12 04:39:06;;;;;;;;;;;;;;;20.35;45.05;100650.56;2203737;39;115600;-53
2021/05/12 04:40:38;;;;;;;;;;;;;;;20.35;44.79;100640.13;2207255;39;115816;-52
2021/05/12 04:42:10;;;;;;;;;;;;;;;20.33;44.89;100641.59;2216603;39;115683;-53
2021/05/12 04:43:42;;;;;;;;;;;;;;;20.34;44.96;100643.28;2209597;39;115599;-53
2021/05/12 04:45:15;;;;;;;;;;;;;;;20.32;44.55;100643.56;2206883;39;116087;-53
2021/05/12 04:46:49;;;;;;;;;;;;;;;20.31;44.96;100647.50;2208150;39;115877;-53
2021/05/12 04:48:21;;;;;;;;;;;;;;;20.31;45.22;100653.13;2214926;39;115646;-53
2021/05/12 04:49:53;;;;;;;;;;;;;;;20.31;44.97;100653.13;2217118;39;114541;-53
2021/05/12 04:51:24;;;;;;;;;;;;;;;20.31;44.80;100646.69;2215758;39;114634;-53
2021/05/12 04:52:57;;;;;;;;;;;;;;;20.31;44.86;100644.72;2209904;39;115864;-53
2021/05/12 04:54:29;;;;;;;;;;;;;;;20.31;45.15;100643.88;2208479;39;115608;-53
2021/05/12 04:56:01;;;;;;;;;;;;;;;20.30;44.92;100643.06;2213762;39;116629;-53
2021/05/12 04:57:32;;;;;;;;;;;;;;;20.30;44.87;100647.84;2210720;39;113768;-52
2021/05/12 04:59:04;;;;;;;;;;;;;;;20.30;44.62;100645.88;2215897;39;113670;-52
2021/05/12 05:00:36;;;;;;;;;;;;;;;20.31;45.08;100652.28;2215458;39;114168;-54
2021/05/12 05:02:10;;;;;;;;;;;;;;;20.30;44.93;100647.84;2215279;39;113811;-53
2021/05/12 05:03:42;;;;;;;;;;;;;;;20.30;44.52;100650.66;2205611;39;113764;-52
2021/05/12 05:05:16;;;;;;;;;;;;;;;20.29;44.65;100648.97;2210337;39;113811;-53
2021/05/12 05:06:48;;;;;;;;;;;;;;;20.30;44.82;100647.84;2214675;39;114258;-53
2021/05/12 05:08:20;;;;;;;;;;;;;;;20.30;44.76;100653.47;2215888;39;113760;-53
2021/05/12 05:09:52;;;;;;;;;;;;;;;20.29;44.68;100646.97;2209714;39;114214;-52
2021/05/12 05:11:23;;;;;;;;;;;;;;;20.31;44.55;100650.31;2214108;39;114349;-53
2021/05/12 05:12:55;;;;;;;;;;;;;;;20.31;44.88;100649.50;2216819;39;113790;-52
2021/05/12 05:14:27;;;;;;;;;;;;;;;20.29;45.06;100646.16;2211837;39;113797;-53
2021/05/12 05:15:59;;;;;;;;;;;;;;;20.29;44.60;100655.41;2210048;39;114170;-53
2021/05/12 05:17:31;;;;;;;;;;;;;;;20.27;44.73;100662.44;2210871;39;114561;-54
2021/05/12 05:19:02;;;;;;;;;;;;;;;20.27;44.51;100656.84;2218282;39;113920;-53
2021/05/12 05:20:34;;;;;;;;;;;;;;;20.27;44.93;100656.84;2216236;39;114909;-54
2021/05/12 05:22:06;;;;;;;;;;;;;;;20.27;44.83;100662.44;2215301;39;114831;-55
2021/05/12 05:23:38;;;;;;;;;;;;;;;20.25;44.83;100662.78;2211125;39;114838;-53
2021/05/12 05:25:10;;;;;;;;;;;;;;;20.26;44.81;100664.44;2214012;39;114015;-54
2021/05/12 05:26:41;;;;;;;;;;;;;;;20.26;45.11;100661.63;2214140;39;114968;-53
2021/05/12 05:28:13;;;;;;;;;;;;;;;20.27;45.08;100662.44;2207988;39;115272;-54
2021/05/12 05:29:45;;;;;;;;;;;;;;;20.31;45.17;100669.13;2211409;39;115478;-53
2021/05/12 05:31:16;;;;;;;;;;;;;;;20.29;44.75;100665.78;2206833;39;114747;-53
2021/05/12 05:32:48;;;;;;;;;;;;;;;20.27;45.23;100659.66;2210487;39;115129;-53
2021/05/12 05:34:22;;;;;;;;;;;;;;;20.29;44.52;100666.63;2214558;39;115071;-52
2021/05/12 05:35:53;;;;;;;;;;;;;;;20.30;44.60;100667.50;2215525;39;115790;-52
2021/05/12 05:37:25;;;;;;;;;;;;;;;20.28;44.99;100664.13;2213423;39;114809;-52
2021/05/12 05:38:57;;;;;;;;;;;;;;;20.27;45.07;100668.91;2203709;39;114969;-53
2021/05/12 05:40:29;;;;;;;;;;;;;;;20.28;44.65;100670.56;2213558;39;113943;-53
2021/05/12 05:42:01;;;;;;;;;;;;;;;20.27;45.10;100671.69;2213987;39;116051;-53
2021/05/12 05:43:33;;;;;;;;;;;;;;;20.03;42.00;100668.31;2214985;39;114617;-52
2021/05/12 05:45:05;;;;;;;;;;;;;;;20.01;42.78;100673.38;2216248;39;115732;-52
2021/05/12 05:46:37;;;;;;;;;;;;;;;20.06;43.24;100672.44;2209805;39;115643;-52
2021/05/12 05:48:09;;;;;;;;;;;;;;;20.09;43.88;100672.66;2209070;39;115563;-52
2021/05/12 05:49:40;;;;;;;;;;;;;;;20.10;44.18;100676.28;2207430;39;116266;-53
2021/05/12 05:51:12;;;;;;;;;;;;;;;20.08;43.88;100670.97;2203595;39;116090;-53
2021/05/12 05:52:44;;;;;;;;;;;;;;;20.11;44.16;100680.75;2208660;39;115740;-53
2021/05/12 05:54:15;;;;;;;;;;;;;;;20.12;44.32;100682.44;2205954;39;115861;-53
2021/05/12 05:55:47;;;;;;;;;;;;;;;20.11;44.34;100680.75;2208041;39;115296;-53
2021/05/12 05:57:19;;;;;;;;;;;;;;;20.11;44.19;100677.97;2210179;39;115923;-53
2021/05/12 05:58:51;;;;;;;;;;;;;;;20.12;44.37;100676.81;2216478;39;114573;-52
2021/05/12 06:00:23;;;;;;;;;;;;;;;20.12;44.38;100677.66;2216599;39;115861;-53
2021/05/12 06:01:56;;;;;;;;;;;;;;;20.12;44.45;100685.25;2219323;39;115815;-53
2021/05/12 06:03:28;;;;;;;;;;;;;;;20.11;44.23;100676.00;2209764;39;114440;-53
2021/05/12 06:05:01;;;;;;;;;;;;;;;20.12;44.54;100676.81;2205062;39;114422;-53
2021/05/12 06:06:34;;;;;;;;;;;;;;;20.12;44.37;100680.47;2212742;39;113707;-53
2021/05/12 06:08:05;;;;;;;;;;;;;;;20.10;44.47;100667.88;2206645;39;113887;-54
2021/05/12 06:09:37;;;;;;;;;;;;;;;20.09;44.38;100666.22;2211746;39;114201;-53
2021/05/12 06:11:10;;;;;;;;;;;;;;;20.10;44.33;100673.50;2214695;39;113664;-54
2021/05/12 06:12:42;;;;;;;;;;;;;;;20.09;44.28;100669.84;2204501;39;113835;-53
2021/05/12 06:14:13;;;;;;;;;;;;;;;20.10;44.25;100667.88;2206137;39;113741;-54
2021/05/12 06:15:45;;;;;;;;;;;;;;;20.10;44.64;100673.50;2214246;39;113873;-53
2021/05/12 06:17:17;;;;;;;;;;;;;;;20.09;44.94;100666.22;2216185;39;113918;-53
2021/05/12 06:18:51;;;;;;;;;;;;;;;20.08;45.03;100665.38;2213153;39;114024;-52
2021/05/12 06:20:23;;;;;;;;;;;;;;;20.09;44.71;100672.66;2215710;39;113596;-55
2021/05/12 06:21:55;;;;;;;;;;;;;;;20.07;44.80;100674.97;2213658;39;113743;-53
2021/05/12 06:23:28;;;;;;;;;;;;;;;20.08;44.42;100668.19;2219809;39;113835;-53
2021/05/12 06:25:00;;;;;;;;;;;;;;;20.10;44.54;100668.72;2218365;39;114788;-53
2021/05/12 06:26:33;;;;;;;;;;;;;;;20.10;44.48;100677.13;2215598;39;114004;-53
2021/05/12 06:28:05;;;;;;;;;;;;;;;20.12;44.93;100679.63;2207104;39;115275;-52
2021/05/12 06:29:38;;;;;;;;;;;;;;;20.15;44.85;100679.00;2214086;39;115319;-53
2021/05/12 06:31:10;;;;;;;;;;;;;;;20.17;45.17;100669.09;2210847;39;115633;-53
2021/05/12 06:32:43;;;;;;;;;;;;;;;20.21;44.99;100669.34;2214631;39;114200;-53
2021/05/12 06:34:16;;;;;;;;;;;;;;;20.23;44.95;100673.47;2215792;39;115282;-52
2021/05/12 06:35:48;;;;;;;;;;;;;;;20.29;45.37;100679.81;2209938;39;114775;-53
2021/05/12 06:37:19;;;;;;;;;;;;;;;20.33;45.34;100678.06;2215668;39;116125;-53
2021/05/12 06:38:51;;;;;;;;;;;;;;;20.36;45.39;100680.25;2217906;39;114868;-53
2021/05/12 06:40:23;;;;;;;;;;;;;;;20.40;45.36;100686.88;2217644;39;114488;-54
2021/05/12 06:41:55;;;;;;;;;;;;;;;20.44;45.34;100678.69;2210560;39;114835;-53
2021/05/12 06:43:27;;;;;;;;;;;;;;;20.48;45.68;100683.38;2209842;39;115171;-52
2021/05/12 06:44:59;;;;;;;;;;;;;;;20.52;45.78;100681.59;2217630;39;114762;-53
2021/05/12 06:46:31;;;;;;;;;;;;;;;20.58;46.05;100687.91;2217025;39;115325;-53
2021/05/12 06:48:02;;;;;;;;;;;;;;;20.62;45.63;100689.78;2215375;39;115297;-53
2021/05/12 06:49:34;;;;;;;;;;;;;;;20.67;45.33;100692.44;2216059;39;115695;-52
2021/05/12 06:51:06;;;;;;;;;;;;;;;20.70;45.46;100691.84;2207474;39;115712;-52
2021/05/12 06:52:37;;;;;;;;;;;;;;;20.73;45.64;100694.00;2212473;39;115454;-52
2021/05/12 06:54:09;;;;;;;;;;;;;;;20.78;45.56;100687.44;2207461;39;115563;-53
2021/05/12 06:55:41;;;;;;;;;;;;;;;20.81;45.43;100693.25;2215002;39;115860;-57
2021/05/12 06:57:12;;;;;;;;;;;;;;;20.83;45.41;100687.31;2209533;39;115717;-53
2021/05/12 06:58:44;;;;;;;;;;;;;;;20.87;45.42;100699.56;2214116;39;115694;-53
2021/05/12 07:00:17;;;;;;;;;;;;;;;20.89;45.37;100686.06;2213253;39;114373;-53
2021/05/12 07:01:54;;;;;;;;;;;;;;;20.93;45.17;100692.69;2207836;39;115666;-53
2021/05/12 07:03:27;;;;;;;;;;;;;;;20.95;45.13;100681.13;2213555;39;116550;-52
2021/05/12 07:04:59;;;;;;;;;;;;;;;20.97;45.40;100685.31;2216759;39;115576;-53
2021/05/12 07:06:30;;;;;;;;;;;;;;;20.99;45.02;100685.78;2209721;39;116129;-53
2021/05/12 07:08:02;;;;;;;;;;;;;;;21.02;44.70;100684.34;2216701;39;115677;-54
2021/05/12 07:09:34;;;;;;;;;;;;;;;21.04;44.61;100690.47;2217700;39;113834;-52
2021/05/12 07:11:06;;;;;;;;;;;;;;;21.05;44.49;100687.34;2217929;39;113756;-53
2021/05/12 07:12:38;;;;;;;;;;;;;;;21.07;44.70;100693.47;2210469;39;113821;-53
2021/05/12 07:14:09;;;;;;;;;;;;;;;21.08;44.60;100685.88;2208147;39;114045;-53
2021/05/12 07:15:41;;;;;;;;;;;;;;;21.09;44.29;100688.34;2208004;39;113879;-53
2021/05/12 07:17:13;;;;;;;;;;;;;;;21.11;44.26;100688.88;2214391;39;113929;-53
2021/05/12 07:18:45;;;;;;;;;;;;;;;21.13;44.39;100685.78;2216900;39;113999;-53
2021/05/12 07:20:17;;;;;;;;;;;;;;;21.14;43.94;100687.44;2217142;39;113979;-53
2021/05/12 07:21:49;;;;;;;;;;;;;;;21.14;44.21;100693.88;2215020;39;113821;-53
2021/05/12 07:23:22;;;;;;;;;;;;;;;21.17;43.93;100686.78;2212683;39;113937;-53
2021/05/12 07:24:54;;;;;;;;;;;;;;;21.18;44.06;100700.53;2215978;39;113771;-52
2021/05/12 07:26:25;;;;;;;;;;;;;;;21.20;43.98;100691.78;2211561;39;113811;-53
2021/05/12 07:27:57;;;;;;;;;;;;;;;21.20;43.56;100692.63;2213606;39;114057;-54
2021/05/12 07:29:29;;;;;;;;;;;;;;;21.20;43.62;100683.38;2207188;39;115158;-53
2021/05/12 07:31:01;;;;;;;;;;;;;;;21.21;43.62;100688.66;2212552;39;114823;-53
2021/05/12 07:32:45;;;;;;;;;;;;;;;21.23;43.75;100685.53;2214927;39;114756;-52
2021/05/12 07:34:18;;;;;;;;;;;;;;;21.24;43.90;100682.41;2210391;39;114927;-53
2021/05/12 07:35:50;;;;;;;;;;;;;;;21.24;43.59;100692.81;2204340;39;115370;-53
2021/05/12 07:37:22;;;;;;;;;;;;;;;21.26;43.83;100696.94;2215008;39;115135;-53
2021/05/12 07:38:53;;;;;;;;;;;;;;;21.26;43.64;100694.13;2210120;39;114996;-53
2021/05/12 07:40:25;;;;;;;;;;;;;;;21.26;43.61;100702.56;2215301;39;114916;-53
2021/05/12 07:42:02;;;;;;;;;;;;;;;21.26;43.49;100690.50;2217158;39;115043;-53
2021/05/12 07:43:34;;;;;;;;;;;;;;;21.27;43.51;100701.41;2214313;39;115143;-52
2021/05/12 07:45:06;;;;;;;;;;;;;;;21.27;43.59;100698.63;2214946;39;114857;-53
2021/05/12 07:46:38;;;;;;;;;;;;;;;21.28;43.67;100705.91;2217474;39;115387;-53
2021/05/12 07:48:11;;;;;;;;;;;;;;;21.29;43.62;100703.94;2210163;39;116156;-53
2021/05/12 07:49:44;;;;;;;;;;;;;;;21.29;43.71;100701.94;2208043;39;113974;-54
2021/05/12 07:51:15;;;;;;;;;;;;;;;21.28;44.08;100703.09;2216803;39;114908;-53